Time;durP1;ratioP1;P1;durP2;ratioP2;P2;SDS_P1;SDS_P2;PMS_P1;PMS_P2;Temp;Humidity;BMP_temperature;BMP_pressure;BME280_temperature;BME280_humidity;BME280_pressure;Samples;Min_cycle;Max_cycle;Signal;HPM_P1;HPM_P2
2021/12/23 00:01:08;;;;;;;4.60;3.60;;;;;;;;;;5009548;28;20023;-69
2021/12/23 00:03:34;;;;;;;3.85;2.72;;;;;;;;;;5008784;28;20026;-69
2021/12/23 00:06:00;;;;;;;4.60;3.42;;;;;;;;;;5009738;28;20018;-69
2021/12/23 00:08:26;;;;;;;3.85;2.80;;;;;;;;;;5009032;28;20108;-68
2021/12/23 00:10:53;;;;;;;4.38;3.13;;;;;;;;;;5009475;28;20018;-65
2021/12/23 00:13:19;;;;;;;3.88;2.90;;;;;;;;;;5008730;28;20366;-61
2021/12/23 00:23:42;;;;;;;4.35;2.67;;;;;;;;;;5012303;28;20072;-69
2021/12/23 00:26:09;;;;;;;4.72;3.20;;;;;;;;;;5012994;28;20041;-68
2021/12/23 00:28:35;;;;;;;4.05;3.13;;;;;;;;;;5012006;28;20086;-66
2021/12/23 00:31:01;;;;;;;5.07;3.50;;;;;;;;;;5012919;28;20054;-65
2021/12/23 00:33:28;;;;;;;3.65;2.90;;;;;;;;;;5011729;28;20024;-67
2021/12/23 00:35:55;;;;;;;4.80;3.35;;;;;;;;;;5012766;28;20010;-68
2021/12/23 00:38:34;;;;;;;5.50;3.47;;;;;;;;;;5012958;28;20030;-68
2021/12/23 00:41:02;;;;;;;5.30;3.70;;;;;;;;;;5014602;28;20024;-69
2021/12/23 00:43:28;;;;;;;4.18;3.33;;;;;;;;;;5013637;28;20065;-68
2021/12/23 00:45:54;;;;;;;4.82;3.38;;;;;;;;;;5014732;28;20053;-68
2021/12/23 00:48:20;;;;;;;4.35;3.60;;;;;;;;;;5013749;28;20018;-61
2021/12/23 00:50:47;;;;;;;4.07;3.13;;;;;;;;;;5014557;28;20402;-68
2021/12/23 00:53:17;;;;;;;5.15;3.25;;;;;;;;;;5014397;28;20057;-68
2021/12/23 00:55:44;;;;;;;4.47;3.13;;;;;;;;;;5014106;28;20381;-68
2021/12/23 00:58:10;;;;;;;3.65;2.95;;;;;;;;;;5013479;28;20057;-69
2021/12/23 01:00:37;;;;;;;3.50;2.92;;;;;;;;;;5014562;28;20030;-68
2021/12/23 01:03:03;;;;;;;4.47;3.20;;;;;;;;;;5014392;28;20471;-66
2021/12/23 01:05:30;;;;;;;5.32;3.60;;;;;;;;;;5013584;28;20029;-68
2021/12/23 01:07:56;;;;;;;3.60;2.83;;;;;;;;;;5014488;28;20034;-68
2021/12/23 01:10:24;;;;;;;4.28;3.13;;;;;;;;;;5013698;28;20110;-65
2021/12/23 01:12:56;;;;;;;3.75;3.15;;;;;;;;;;5013823;28;20375;-68
2021/12/23 01:20:26;;;;;;;4.07;3.08;;;;;;;;;;5013688;28;20062;-61
2021/12/23 01:22:52;;;;;;;4.32;3.50;;;;;;;;;;5013750;28;20034;-69
2021/12/23 01:25:18;;;;;;;4.85;3.20;;;;;;;;;;5013742;28;20041;-61
2021/12/23 01:27:44;;;;;;;5.70;3.80;;;;;;;;;;5012568;28;20038;-68
2021/12/23 01:30:10;;;;;;;4.95;3.22;;;;;;;;;;5014026;28;20029;-69
2021/12/23 01:32:36;;;;;;;5.05;3.78;;;;;;;;;;5012552;28;20040;-68
2021/12/23 01:35:03;;;;;;;4.28;3.15;;;;;;;;;;5013677;28;20025;-69
2021/12/23 01:37:29;;;;;;;4.15;3.33;;;;;;;;;;5012763;28;20034;-69
2021/12/23 01:39:55;;;;;;;4.10;3.15;;;;;;;;;;5013787;28;20026;-69
2021/12/23 01:42:21;;;;;;;5.45;3.60;;;;;;;;;;5012867;28;20045;-61
2021/12/23 01:44:47;;;;;;;5.85;3.03;;;;;;;;;;5013728;28;20080;-69
2021/12/23 01:47:13;;;;;;;4.18;3.30;;;;;;;;;;5013662;28;20025;-69
2021/12/23 01:49:39;;;;;;;4.40;3.40;;;;;;;;;;5011968;28;20327;-69
2021/12/23 01:52:05;;;;;;;4.30;3.50;;;;;;;;;;5013149;28;20112;-69
2021/12/23 01:54:31;;;;;;;4.07;3.10;;;;;;;;;;5012108;28;20028;-68
2021/12/23 01:56:57;;;;;;;2.95;2.50;;;;;;;;;;5012410;28;20046;-68
2021/12/23 01:59:23;;;;;;;3.58;3.20;;;;;;;;;;5012609;28;20056;-68
2021/12/23 02:01:49;;;;;;;4.40;3.40;;;;;;;;;;5013078;28;20030;-69
2021/12/23 02:04:15;;;;;;;5.32;3.28;;;;;;;;;;5013237;28;20026;-68
2021/12/23 02:06:41;;;;;;;3.45;2.90;;;;;;;;;;5012550;28;20137;-68
2021/12/23 02:09:07;;;;;;;3.00;2.70;;;;;;;;;;5013167;28;20028;-68
2021/12/23 02:11:33;;;;;;;4.43;3.47;;;;;;;;;;5012111;28;20026;-68
2021/12/23 02:13:59;;;;;;;3.45;2.90;;;;;;;;;;5013137;28;20079;-69
2021/12/23 02:16:25;;;;;;;4.40;3.70;;;;;;;;;;5012265;28;20073;-65
2021/12/23 02:18:51;;;;;;;4.28;3.38;;;;;;;;;;5012432;28;20502;-68
2021/12/23 02:21:17;;;;;;;3.30;2.70;;;;;;;;;;5012615;28;20095;-61
2021/12/23 02:23:43;;;;;;;3.90;3.50;;;;;;;;;;5012485;28;20045;-68
2021/12/23 02:26:09;;;;;;;3.60;3.00;;;;;;;;;;5013092;28;20026;-68
2021/12/23 02:28:35;;;;;;;4.35;3.25;;;;;;;;;;5012086;28;20029;-68
2021/12/23 02:31:01;;;;;;;4.65;3.13;;;;;;;;;;5012414;28;20022;-68
2021/12/23 02:33:28;;;;;;;4.30;3.00;;;;;;;;;;5011841;28;20028;-68
2021/12/23 02:35:56;;;;;;;3.72;2.70;;;;;;;;;;5013099;28;20030;-68
2021/12/23 02:38:22;;;;;;;2.63;2.08;;;;;;;;;;5011966;28;20033;-68
2021/12/23 02:40:49;;;;;;;4.97;3.63;;;;;;;;;;5012427;28;20021;-68
2021/12/23 02:43:26;;;;;;;4.45;3.20;;;;;;;;;;5012310;28;20494;-69
2021/12/23 02:45:54;;;;;;;4.53;3.42;;;;;;;;;;5011992;28;20497;-69
2021/12/23 02:48:24;;;;;;;3.83;3.10;;;;;;;;;;5012050;28;20034;-62
2021/12/23 02:50:51;;;;;;;4.68;3.10;;;;;;;;;;5011779;28;20046;-68
2021/12/23 02:53:18;;;;;;;4.25;3.28;;;;;;;;;;5012221;28;20108;-62
2021/12/23 02:55:44;;;;;;;4.03;2.92;;;;;;;;;;5011795;28;20125;-68
2021/12/23 02:58:10;;;;;;;4.03;2.95;;;;;;;;;;5012059;28;20057;-68
2021/12/23 03:00:37;;;;;;;3.42;2.90;;;;;;;;;;5011330;28;20049;-68
2021/12/23 03:03:03;;;;;;;4.65;3.10;;;;;;;;;;5012189;28;20034;-68
2021/12/23 03:05:29;;;;;;;3.63;2.88;;;;;;;;;;5011108;28;20089;-68
2021/12/23 03:07:55;;;;;;;3.38;2.80;;;;;;;;;;5012317;28;20029;-68
2021/12/23 03:10:22;;;;;;;3.67;2.95;;;;;;;;;;5011483;28;20038;-62
2021/12/23 03:12:48;;;;;;;3.15;2.63;;;;;;;;;;5011830;28;20088;-67
2021/12/23 03:15:14;;;;;;;3.72;2.72;;;;;;;;;;5012059;28;20034;-68
2021/12/23 03:17:40;;;;;;;3.63;2.88;;;;;;;;;;5010136;28;20605;-68
2021/12/23 03:20:07;;;;;;;3.58;2.80;;;;;;;;;;5011930;28;20072;-69
2021/12/23 03:22:33;;;;;;;4.18;3.20;;;;;;;;;;5011335;28;20030;-68
2021/12/23 03:24:59;;;;;;;3.15;2.42;;;;;;;;;;5011765;28;20082;-68
2021/12/23 03:27:25;;;;;;;3.25;2.60;;;;;;;;;;5011371;28;20038;-65
2021/12/23 03:29:51;;;;;;;4.50;2.78;;;;;;;;;;5012143;28;20050;-69
2021/12/23 03:32:18;;;;;;;4.00;3.05;;;;;;;;;;5011953;28;20060;-69
2021/12/23 03:34:44;;;;;;;4.22;3.15;;;;;;;;;;5011174;28;20030;-69
2021/12/23 03:37:10;;;;;;;4.15;3.05;;;;;;;;;;5011874;28;20026;-68
2021/12/23 03:39:36;;;;;;;3.25;2.60;;;;;;;;;;5011177;28;20038;-68
2021/12/23 03:42:03;;;;;;;3.53;3.05;;;;;;;;;;5011909;28;20088;-69
2021/12/23 03:44:29;;;;;;;4.95;3.53;;;;;;;;;;5011103;28;20026;-68
2021/12/23 03:46:55;;;;;;;4.07;3.30;;;;;;;;;;5011840;28;20030;-67
2021/12/23 03:49:21;;;;;;;4.75;3.60;;;;;;;;;;5011239;28;20041;-61
2021/12/23 03:51:47;;;;;;;4.53;3.30;;;;;;;;;;5012867;28;20085;-69
2021/12/23 03:54:13;;;;;;;3.53;3.03;;;;;;;;;;5015747;28;20101;-69
2021/12/23 03:56:39;;;;;;;3.97;3.08;;;;;;;;;;5014759;28;20169;-68
2021/12/23 03:59:05;;;;;;;3.50;2.67;;;;;;;;;;5014966;28;20057;-68
2021/12/23 04:01:31;;;;;;;4.45;3.35;;;;;;;;;;5014385;28;20026;-68
2021/12/23 04:03:57;;;;;;;3.92;3.15;;;;;;;;;;5015394;28;20406;-69
2021/12/23 04:06:25;;;;;;;3.42;2.72;;;;;;;;;;5014656;28;20030;-61
2021/12/23 04:08:51;;;;;;;3.50;3.00;;;;;;;;;;5014980;28;20053;-68
2021/12/23 04:11:17;;;;;;;3.33;3.00;;;;;;;;;;5014975;28;20482;-68
2021/12/23 04:13:43;;;;;;;5.38;3.13;;;;;;;;;;5014616;28;20049;-69
2021/12/23 04:16:09;;;;;;;3.83;3.25;;;;;;;;;;5015210;28;20344;-69
2021/12/23 04:18:35;;;;;;;4.25;2.72;;;;;;;;;;5014569;28;20021;-68
2021/12/23 04:21:01;;;;;;;4.45;3.05;;;;;;;;;;5014473;28;20026;-68
2021/12/23 04:23:28;;;;;;;3.63;2.88;;;;;;;;;;5014405;28;20026;-68
2021/12/23 04:25:55;;;;;;;3.00;2.60;;;;;;;;;;5015463;28;20030;-69
2021/12/23 04:28:21;;;;;;;3.35;2.75;;;;;;;;;;5014318;28;20391;-61
2021/12/23 04:30:48;;;;;;;4.55;3.03;;;;;;;;;;5014627;28;20080;-68
2021/12/23 04:33:14;;;;;;;4.32;3.15;;;;;;;;;;5015383;28;20050;-69
2021/12/23 04:35:40;;;;;;;4.63;3.08;;;;;;;;;;5014036;28;20037;-69
2021/12/23 04:38:06;;;;;;;4.45;3.20;;;;;;;;;;5014909;28;20517;-69
2021/12/23 04:40:36;;;;;;;3.33;2.80;;;;;;;;;;5013901;28;20022;-68
2021/12/23 04:43:04;;;;;;;3.92;3.08;;;;;;;;;;5015036;28;20438;-68
2021/12/23 04:45:30;;;;;;;4.05;3.10;;;;;;;;;;5014158;28;20026;-68
2021/12/23 04:47:56;;;;;;;4.07;2.85;;;;;;;;;;5014801;28;20378;-68
2021/12/23 04:50:22;;;;;;;4.25;3.10;;;;;;;;;;5013912;28;20056;-61
2021/12/23 04:52:48;;;;;;;3.22;2.70;;;;;;;;;;5014355;28;20054;-68
2021/12/23 04:55:15;;;;;;;4.45;3.05;;;;;;;;;;5014238;28;20044;-68
2021/12/23 04:57:42;;;;;;;3.30;2.65;;;;;;;;;;5013762;28;20053;-68
2021/12/23 05:00:10;;;;;;;3.83;2.65;;;;;;;;;;5013226;28;20030;-68
2021/12/23 05:02:36;;;;;;;3.30;2.72;;;;;;;;;;5012807;28;20022;-68
2021/12/23 05:05:04;;;;;;;3.55;2.70;;;;;;;;;;5014396;28;20030;-68
2021/12/23 05:07:30;;;;;;;3.55;2.83;;;;;;;;;;5013585;28;20040;-70
2021/12/23 05:09:56;;;;;;;4.28;3.28;;;;;;;;;;5029884;28;20486;-68
2021/12/23 05:12:22;;;;;;;4.05;2.80;;;;;;;;;;5014050;28;20105;-60
2021/12/23 05:14:47;;;;;;;4.05;3.00;;;;;;;;;;5013552;28;20028;-68
2021/12/23 05:17:13;;;;;;;3.72;3.00;;;;;;;;;;5014164;28;20463;-68
2021/12/23 05:19:39;;;;;;;3.55;2.97;;;;;;;;;;5011983;28;20029;-66
2021/12/23 05:22:06;;;;;;;3.50;2.88;;;;;;;;;;5013574;28;20503;-66
2021/12/23 05:24:32;;;;;;;3.85;2.90;;;;;;;;;;5013273;28;20060;-68
2021/12/23 05:26:58;;;;;;;7.15;3.35;;;;;;;;;;5013693;28;20033;-68
2021/12/23 05:29:24;;;;;;;3.45;2.92;;;;;;;;;;5013314;28;20030;-60
2021/12/23 05:31:50;;;;;;;4.38;2.60;;;;;;;;;;5013790;28;20061;-68
2021/12/23 05:34:16;;;;;;;3.63;2.90;;;;;;;;;;5014115;28;20483;-68
2021/12/23 05:36:42;;;;;;;3.15;2.80;;;;;;;;;;5013108;28;20144;-68
2021/12/23 05:39:08;;;;;;;3.60;2.85;;;;;;;;;;5013130;28;20113;-68
2021/12/23 05:41:34;;;;;;;3.10;2.40;;;;;;;;;;5012606;28;20030;-68
2021/12/23 05:44:01;;;;;;;4.82;3.20;;;;;;;;;;5013359;28;20383;-68
2021/12/23 05:46:27;;;;;;;3.38;2.80;;;;;;;;;;5012381;28;20056;-68
2021/12/23 05:48:54;;;;;;;3.03;2.30;;;;;;;;;;5013705;28;20029;-68
2021/12/23 05:51:20;;;;;;;4.07;2.72;;;;;;;;;;5013315;28;20038;-67
2021/12/23 05:53:46;;;;;;;3.80;2.95;;;;;;;;;;5012914;28;20022;-68
2021/12/23 05:56:12;;;;;;;3.40;2.58;;;;;;;;;;5013726;28;20454;-68
2021/12/23 05:58:38;;;;;;;4.55;3.67;;;;;;;;;;5011622;28;20034;-68
2021/12/23 06:01:04;;;;;;;3.75;2.65;;;;;;;;;;5012145;28;20026;-68
2021/12/23 06:03:31;;;;;;;3.85;2.88;;;;;;;;;;5011509;28;20022;-68
2021/12/23 06:05:58;;;;;;;4.55;3.17;;;;;;;;;;5011926;28;20458;-68
2021/12/23 06:08:24;;;;;;;3.58;2.72;;;;;;;;;;5011846;28;20026;-62
2021/12/23 06:10:50;;;;;;;4.75;3.05;;;;;;;;;;5011341;28;20026;-69
2021/12/23 06:13:16;;;;;;;3.97;2.78;;;;;;;;;;5012215;28;20037;-68
2021/12/23 06:15:42;;;;;;;3.28;2.53;;;;;;;;;;5009299;28;20018;-68
2021/12/23 06:18:08;;;;;;;5.18;2.88;;;;;;;;;;5000598;28;20064;-69
2021/12/23 06:20:34;;;;;;;3.22;2.38;;;;;;;;;;5003101;28;20462;-67
2021/12/23 06:23:00;;;;;;;4.93;2.50;;;;;;;;;;5003743;28;20023;-60
2021/12/23 06:25:26;;;;;;;5.03;3.50;;;;;;;;;;5001425;28;20113;-61
2021/12/23 06:27:52;;;;;;;4.75;3.10;;;;;;;;;;5001331;28;20432;-60
2021/12/23 06:30:19;;;;;;;4.55;2.90;;;;;;;;;;5003745;28;20026;-61
2021/12/23 06:32:49;;;;;;;5.95;3.28;;;;;;;;;;5002347;28;20596;-62
2021/12/23 06:35:16;;;;;;;4.80;2.78;;;;;;;;;;5005386;28;20109;-62
2021/12/23 06:37:43;;;;;;;5.82;3.53;;;;;;;;;;5000214;28;20105;-66
2021/12/23 06:40:10;;;;;;;4.82;2.95;;;;;;;;;;4992081;28;20495;-61
2021/12/23 06:42:36;;;;;;;5.10;3.08;;;;;;;;;;5007106;28;20025;-67
2021/12/23 06:45:03;;;;;;;6.55;3.10;;;;;;;;;;5002237;28;20018;-60
2021/12/23 06:47:29;;;;;;;3.47;2.78;;;;;;;;;;5011575;28;20026;-59
2021/12/23 06:49:55;;;;;;;5.32;3.03;;;;;;;;;;5011896;28;20026;-64
2021/12/23 06:52:21;;;;;;;6.13;3.42;;;;;;;;;;5011805;28;20033;-61
2021/12/23 06:54:49;;;;;;;4.85;3.22;;;;;;;;;;5010393;28;20747;-61
2021/12/23 06:57:15;;;;;;;4.47;2.90;;;;;;;;;;4966063;28;1322932;-62
2021/12/23 06:59:41;;;;;;;4.93;3.40;;;;;;;;;;5011583;28;20112;-65
2021/12/23 07:02:07;;;;;;;4.93;3.55;;;;;;;;;;5011976;28;20099;-62
2021/12/23 07:04:35;;;;;;;6.45;3.00;;;;;;;;;;5011380;28;20029;-62
2021/12/23 07:07:09;;;;;;;5.43;2.78;;;;;;;;;;5012121;28;20033;-66
2021/12/23 07:09:39;;;;;;;7.22;3.38;;;;;;;;;;5011472;28;20537;-66
2021/12/23 07:12:06;;;;;;;5.68;2.47;;;;;;;;;;5019510;28;20030;-61
2021/12/23 07:14:32;;;;;;;7.32;3.13;;;;;;;;;;5011565;28;20080;-65
2021/12/23 07:16:58;;;;;;;6.65;2.90;;;;;;;;;;5011928;28;20065;-65
2021/12/23 07:19:24;;;;;;;12.27;3.63;;;;;;;;;;5012129;28;20108;-64
2021/12/23 07:21:50;;;;;;;4.75;3.10;;;;;;;;;;5010526;28;20456;-64
2021/12/23 07:24:16;;;;;;;4.78;3.33;;;;;;;;;;5011615;28;20028;-60
2021/12/23 07:26:44;;;;;;;4.68;2.80;;;;;;;;;;5010003;28;20025;-64
2021/12/23 07:29:10;;;;;;;5.25;2.60;;;;;;;;;;5012119;28;20041;-62
2021/12/23 07:31:36;;;;;;;5.97;2.90;;;;;;;;;;5010715;28;20025;-60
2021/12/23 07:34:02;;;;;;;5.00;2.88;;;;;;;;;;5006200;28;20375;-60
2021/12/23 07:36:28;;;;;;;4.78;3.05;;;;;;;;;;5012144;28;20041;-61
2021/12/23 07:38:55;;;;;;;5.07;2.95;;;;;;;;;;5012172;28;20113;-60
2021/12/23 07:41:21;;;;;;;7.00;3.33;;;;;;;;;;5011384;28;20048;-60
2021/12/23 07:43:59;;;;;;;8.00;3.10;;;;;;;;;;5010911;28;20071;-60
2021/12/23 07:46:25;;;;;;;6.18;2.70;;;;;;;;;;5010489;28;20505;-67
2021/12/23 07:48:52;;;;;;;6.47;3.33;;;;;;;;;;4995181;28;20060;-65
2021/12/23 07:51:18;;;;;;;6.40;3.42;;;;;;;;;;5011490;28;20022;-66
2021/12/23 07:53:44;;;;;;;4.13;3.15;;;;;;;;;;5012524;28;20109;-65
2021/12/23 07:56:10;;;;;;;5.50;2.70;;;;;;;;;;5010085;28;20101;-65
2021/12/23 07:58:36;;;;;;;9.77;3.25;;;;;;;;;;5010552;28;20046;-65
2021/12/23 08:01:02;;;;;;;7.63;3.20;;;;;;;;;;5010695;28;20026;-65
2021/12/23 08:03:28;;;;;;;7.15;3.33;;;;;;;;;;5009182;28;20030;-62
2021/12/23 08:05:54;;;;;;;4.13;2.85;;;;;;;;;;5009098;28;20029;-65
2021/12/23 08:08:20;;;;;;;3.83;2.70;;;;;;;;;;5009206;28;20050;-65
2021/12/23 08:10:48;;;;;;;3.83;2.80;;;;;;;;;;5009088;28;20483;-64
2021/12/23 08:13:15;;;;;;;5.40;3.25;;;;;;;;;;5011001;28;20032;-65
2021/12/23 08:15:41;;;;;;;4.80;3.20;;;;;;;;;;5010748;28;20061;-66
2021/12/23 08:18:07;;;;;;;4.85;2.72;;;;;;;;;;5011196;28;20148;-66
2021/12/23 08:20:33;;;;;;;4.82;2.80;;;;;;;;;;5010106;28;20030;-65
2021/12/23 08:22:59;;;;;;;4.00;2.67;;;;;;;;;;5011278;28;20022;-66
2021/12/23 08:25:25;;;;;;;4.78;2.95;;;;;;;;;;5011066;28;20033;-66
2021/12/23 08:27:51;;;;;;;8.25;3.78;;;;;;;;;;5010038;28;20037;-66
2021/12/23 08:30:18;;;;;;;5.20;2.95;;;;;;;;;;5011125;28;20026;-65
2021/12/23 08:32:45;;;;;;;5.30;2.67;;;;;;;;;;5009821;28;20025;-65
2021/12/23 08:35:11;;;;;;;5.07;3.42;;;;;;;;;;5010406;28;20054;-65
2021/12/23 08:37:39;;;;;;;5.22;2.97;;;;;;;;;;5011990;28;20080;-65
2021/12/23 08:40:06;;;;;;;5.93;2.72;;;;;;;;;;5014601;28;20080;-65
2021/12/23 08:42:32;;;;;;;4.45;3.17;;;;;;;;;;5012464;28;20029;-65
2021/12/23 08:44:59;;;;;;;6.53;3.13;;;;;;;;;;5013403;28;20463;-65
2021/12/23 08:47:25;;;;;;;3.53;2.65;;;;;;;;;;5013275;28;20068;-66
2021/12/23 08:49:51;;;;;;;4.93;2.92;;;;;;;;;;5012160;28;20526;-66
2021/12/23 08:52:17;;;;;;;3.70;2.55;;;;;;;;;;5014001;28;20045;-65
2021/12/23 08:54:43;;;;;;;4.78;3.10;;;;;;;;;;5012917;28;20069;-64
2021/12/23 08:57:09;;;;;;;5.05;3.35;;;;;;;;;;5013315;28;20046;-65
2021/12/23 08:59:35;;;;;;;4.38;2.75;;;;;;;;;;5012834;28;20070;-66
2021/12/23 09:02:02;;;;;;;3.58;3.10;;;;;;;;;;5013250;28;20026;-65
2021/12/23 09:04:28;;;;;;;4.70;3.58;;;;;;;;;;5012987;28;20096;-60
2021/12/23 09:06:54;;;;;;;4.65;3.15;;;;;;;;;;5014034;28;20113;-67
2021/12/23 09:09:20;;;;;;;3.78;2.40;;;;;;;;;;5013711;28;20395;-65
2021/12/23 09:11:47;;;;;;;3.45;3.10;;;;;;;;;;5013224;28;20030;-66
2021/12/23 09:14:13;;;;;;;3.42;2.63;;;;;;;;;;5013754;28;20029;-66
2021/12/23 09:16:39;;;;;;;5.22;3.33;;;;;;;;;;5013187;28;20435;-66
2021/12/23 09:19:06;;;;;;;3.63;3.25;;;;;;;;;;5013485;28;20030;-67
2021/12/23 09:21:32;;;;;;;4.07;3.03;;;;;;;;;;5013188;28;20100;-63
2021/12/23 09:23:58;;;;;;;4.20;2.83;;;;;;;;;;5013918;28;20033;-67
2021/12/23 09:26:25;;;;;;;5.15;3.03;;;;;;;;;;5013435;28;20148;-67
2021/12/23 09:34:01;;;;;;;5.55;2.92;;;;;;;;;;5012547;28;20449;-67
2021/12/23 09:36:27;;;;;;;4.75;3.17;;;;;;;;;;5013331;28;20500;-67
2021/12/23 09:38:53;;;;;;;4.63;2.90;;;;;;;;;;5013393;28;20026;-68
2021/12/23 09:41:22;;;;;;;3.92;2.78;;;;;;;;;;5013162;28;20141;-67
2021/12/23 09:43:48;;;;;;;4.50;3.15;;;;;;;;;;5012461;28;20026;-68
2021/12/23 09:46:17;;;;;;;5.05;3.72;;;;;;;;;;5013198;28;20030;-68
2021/12/23 09:48:44;;;;;;;3.72;2.85;;;;;;;;;;5009670;28;20040;-68
2021/12/23 09:51:11;;;;;;;7.97;4.20;;;;;;;;;;5014410;28;20026;-66
2021/12/23 09:53:40;;;;;;;6.53;3.75;;;;;;;;;;5012501;28;20026;-66
2021/12/23 09:56:06;;;;;;;4.88;3.20;;;;;;;;;;5013518;28;20030;-67
2021/12/23 09:58:32;;;;;;;3.70;3.03;;;;;;;;;;5011731;28;20483;-62
2021/12/23 10:00:59;;;;;;;4.65;3.20;;;;;;;;;;5012582;28;20455;-67
2021/12/23 10:03:26;;;;;;;3.22;2.83;;;;;;;;;;5011252;28;20022;-68
2021/12/23 10:05:52;;;;;;;5.60;3.53;;;;;;;;;;5011880;28;20502;-66
2021/12/23 10:08:19;;;;;;;6.03;3.90;;;;;;;;;;5011989;28;20387;-66
2021/12/23 10:10:54;;;;;;;3.88;3.30;;;;;;;;;;5011836;28;20030;-66
2021/12/23 10:38:09;;;;;;;5.65;3.03;;;;;;;;;;5011788;28;20392;-67
2021/12/23 10:40:35;;;;;;;4.28;2.95;;;;;;;;;;5011627;28;20030;-66
2021/12/23 10:43:01;;;;;;;5.13;3.78;;;;;;;;;;5012557;28;20030;-67
2021/12/23 10:45:37;;;;;;;4.68;3.17;;;;;;;;;;5011510;28;20033;-66
2021/12/23 10:48:09;;;;;;;4.57;2.80;;;;;;;;;;5012522;28;20033;-67
2021/12/23 10:53:08;;;;;;;5.20;2.92;;;;;;;;;;5012077;28;19906;-67
2021/12/23 10:58:20;;;;;;;4.28;3.15;;;;;;;;;;5011892;28;20510;-67
2021/12/23 11:00:50;;;;;;;4.93;3.33;;;;;;;;;;5010847;28;20030;-66
2021/12/23 11:03:23;;;;;;;4.03;3.17;;;;;;;;;;5010783;28;20064;-66
2021/12/23 11:06:03;;;;;;;4.07;2.95;;;;;;;;;;5011018;28;20604;-66
2021/12/23 11:41:32;;;;;;;5.05;3.50;;;;;;;;;;4969890;28;20099;-65
2021/12/23 11:43:59;;;;;;;4.07;2.70;;;;;;;;;;5004057;28;20026;-73
2021/12/23 11:46:34;;;;;;;3.72;2.90;;;;;;;;;;5011481;28;20026;-63
2021/12/23 11:49:02;;;;;;;7.82;3.60;;;;;;;;;;5011776;28;20030;-64
2021/12/23 11:54:09;;;;;;;5.00;3.35;;;;;;;;;;5011320;28;20061;-63
2021/12/23 11:56:37;;;;;;;5.95;4.00;;;;;;;;;;5010117;28;20495;-61
2021/12/23 11:59:03;;;;;;;6.22;4.07;;;;;;;;;;5011783;28;20414;-63
2021/12/23 12:01:31;;;;;;;9.02;4.47;;;;;;;;;;5011266;28;20026;-60
2021/12/23 12:03:57;;;;;;;6.20;3.92;;;;;;;;;;5009662;28;20030;-59
2021/12/23 12:06:25;;;;;;;5.47;3.78;;;;;;;;;;5012862;28;20022;-60
2021/12/23 12:08:55;;;;;;;8.40;3.75;;;;;;;;;;5011419;28;20589;-59
2021/12/23 12:11:22;;;;;;;7.45;3.78;;;;;;;;;;5010959;28;20049;-59
2021/12/23 12:13:49;;;;;;;5.22;4.15;;;;;;;;;;5013531;28;20022;-59
2021/12/23 12:16:28;;;;;;;7.70;3.80;;;;;;;;;;5014667;28;20030;-59
2021/12/23 12:18:54;;;;;;;5.70;3.40;;;;;;;;;;5014063;28;20113;-59
2021/12/23 12:21:31;;;;;;;4.63;3.85;;;;;;;;;;5014864;28;20030;-59
2021/12/23 12:24:07;;;;;;;6.30;4.03;;;;;;;;;;5014607;28;20061;-59
2021/12/23 12:26:35;;;;;;;6.05;3.55;;;;;;;;;;5014179;28;20079;-59
2021/12/23 12:29:05;;;;;;;5.93;4.35;;;;;;;;;;5014703;28;20025;-59
2021/12/23 12:31:39;;;;;;;5.85;3.70;;;;;;;;;;5013996;28;20026;-59
2021/12/23 12:34:06;;;;;;;5.00;3.10;;;;;;;;;;5014021;28;20018;-59
2021/12/23 12:36:39;;;;;;;5.05;3.60;;;;;;;;;;5014068;28;20064;-59
2021/12/23 12:39:08;;;;;;;3.83;3.13;;;;;;;;;;5014608;28;20028;-59
2021/12/23 12:41:35;;;;;;;4.95;3.78;;;;;;;;;;5013981;28;20030;-59
2021/12/23 12:44:33;;;;;;;7.05;3.45;;;;;;;;;;5014539;28;20072;-59
2021/12/23 12:47:07;;;;;;;7.05;3.60;;;;;;;;;;5013580;28;20030;-59
2021/12/23 12:49:46;;;;;;;4.78;3.47;;;;;;;;;;5014090;28;20450;-59
2021/12/23 12:52:21;;;;;;;5.53;3.50;;;;;;;;;;5014488;28;20435;-59
2021/12/23 12:54:53;;;;;;;11.07;4.38;;;;;;;;;;5013719;28;20030;-59
2021/12/23 12:57:19;;;;;;;;;;;;;;;;;;5014793;28;20049;-59
2021/12/23 12:59:46;;;;;;;4.18;3.20;;;;;;;;;;5012733;28;19963;-59
2021/12/23 13:02:23;;;;;;;5.85;3.70;;;;;;;;;;5014106;28;20048;-59
2021/12/23 13:04:56;;;;;;;7.10;3.85;;;;;;;;;;5012559;28;20021;-59
2021/12/23 13:07:36;;;;;;;5.70;4.10;;;;;;;;;;5013846;28;20026;-59
2021/12/23 13:10:18;;;;;;;7.75;3.92;;;;;;;;;;5014658;28;20109;-59
2021/12/23 13:12:49;;;;;;;5.95;3.45;;;;;;;;;;5014021;28;20083;-59
2021/12/23 13:15:22;;;;;;;6.05;3.42;;;;;;;;;;5013460;28;20041;-59
2021/12/23 13:17:54;;;;;;;6.18;3.50;;;;;;;;;;5012871;28;20033;-60
2021/12/23 13:20:20;;;;;;;;;;;;;;;;;;5013991;28;20041;-59
2021/12/23 13:22:46;;;;;;;5.13;3.70;;;;;;;;;;5012549;28;19954;-59
2021/12/23 13:25:13;;;;;;;4.40;3.67;;;;;;;;;;5013141;28;20490;-59
2021/12/23 13:27:42;;;;;;;5.63;3.70;;;;;;;;;;5013101;28;20383;-59
2021/12/23 13:30:11;;;;;;;5.20;3.53;;;;;;;;;;5013756;28;20121;-59
2021/12/23 13:32:37;;;;;;;5.38;3.33;;;;;;;;;;5012275;28;20054;-59
2021/12/23 13:35:16;;;;;;;4.55;3.60;;;;;;;;;;5012335;28;20117;-59
2021/12/23 13:37:43;;;;;;;4.63;3.33;;;;;;;;;;5012826;28;20034;-59
2021/12/23 13:40:09;;;;;;;5.88;3.58;;;;;;;;;;5013643;28;20078;-58
2021/12/23 13:42:39;;;;;;;5.40;3.15;;;;;;;;;;5012611;28;20044;-60
2021/12/23 13:45:05;;;;;;;8.68;3.85;;;;;;;;;;5013385;28;20057;-59
2021/12/23 13:47:33;;;;;;;5.90;3.95;;;;;;;;;;5012889;28;20506;-59
2021/12/23 13:50:00;;;;;;;5.95;3.90;;;;;;;;;;5012311;28;20014;-59
2021/12/23 13:52:27;;;;;;;5.93;4.05;;;;;;;;;;5012940;28;20034;-59
2021/12/23 13:54:54;;;;;;;5.63;3.47;;;;;;;;;;5010995;28;20018;-59
2021/12/23 13:57:21;;;;;;;8.40;4.38;;;;;;;;;;5012571;28;20100;-58
2021/12/23 13:59:48;;;;;;;8.00;4.20;;;;;;;;;;5011919;28;20037;-58
2021/12/23 14:02:18;;;;;;;4.78;4.03;;;;;;;;;;5013174;28;20033;-59
2021/12/23 14:04:51;;;;;;;6.80;3.58;;;;;;;;;;5010488;28;20471;-59
2021/12/23 14:07:19;;;;;;;4.82;3.50;;;;;;;;;;5012366;28;20135;-59
2021/12/23 14:09:54;;;;;;;4.85;3.85;;;;;;;;;;5012308;28;20057;-59
2021/12/23 14:12:40;;;;;;;4.97;3.53;;;;;;;;;;5012660;28;20032;-59
2021/12/23 14:15:07;;;;;;;5.70;4.05;;;;;;;;;;5013097;28;20022;-59
2021/12/23 14:17:41;;;;;;;6.10;3.33;;;;;;;;;;5011488;28;20026;-58
2021/12/23 14:23:14;;;;;;;5.35;3.33;;;;;;;;;;5012225;28;20033;-59
2021/12/23 14:26:02;;;;;;;6.10;4.32;;;;;;;;;;5011885;28;20053;-57
2021/12/23 14:28:30;;;;;;;5.18;3.28;;;;;;;;;;5006672;28;20026;-59
2021/12/23 14:30:58;;;;;;;5.18;3.25;;;;;;;;;;5011696;28;20056;-59
2021/12/23 14:33:26;;;;;;;4.32;3.08;;;;;;;;;;5012551;28;20037;-59
2021/12/23 14:35:56;;;;;;;5.43;3.35;;;;;;;;;;5011061;28;20030;-59
2021/12/23 14:38:27;;;;;;;5.75;3.80;;;;;;;;;;5009252;28;20026;-60
2021/12/23 14:41:01;;;;;;;4.13;2.75;;;;;;;;;;5010068;28;20168;-60
2021/12/23 14:43:27;;;;;;;5.63;3.10;;;;;;;;;;5010416;28;20084;-59
2021/12/23 14:45:56;;;;;;;4.50;2.65;;;;;;;;;;5011253;28;20379;-59
2021/12/23 14:48:22;;;;;;;5.25;3.30;;;;;;;;;;5011642;28;20435;-60
2021/12/23 14:50:51;;;;;;;4.50;3.00;;;;;;;;;;5011143;28;20026;-59
2021/12/23 14:53:18;;;;;;;6.53;3.65;;;;;;;;;;5011589;28;20479;-59
2021/12/23 14:55:52;;;;;;;5.35;3.33;;;;;;;;;;5010967;28;20364;-59
2021/12/23 14:58:18;;;;;;;5.07;3.10;;;;;;;;;;5008849;28;20060;-59
2021/12/23 15:00:46;;;;;;;5.70;3.00;;;;;;;;;;5010884;28;20026;-59
2021/12/23 15:03:13;;;;;;;6.82;2.88;;;;;;;;;;5010752;28;20038;-59
2021/12/23 15:05:40;;;;;;;6.05;3.08;;;;;;;;;;5011215;28;20037;-60
2021/12/23 15:08:07;;;;;;;7.57;2.90;;;;;;;;;;5011951;28;20042;-59
2021/12/23 15:10:44;;;;;;;5.95;3.25;;;;;;;;;;5012079;28;20022;-59
2021/12/23 15:13:21;;;;;;;11.88;3.03;;;;;;;;;;5011190;28;20022;-60
2021/12/23 15:15:48;;;;;;;4.93;3.15;;;;;;;;;;5010378;28;20097;-60
2021/12/23 15:18:27;;;;;;;5.13;3.25;;;;;;;;;;5011567;28;20034;-55
2021/12/23 15:20:54;;;;;;;9.65;3.47;;;;;;;;;;5010596;28;20030;-59
2021/12/23 15:23:37;;;;;;;10.07;3.95;;;;;;;;;;5011360;28;20049;-55
2021/12/23 15:26:03;;;;;;;8.77;3.10;;;;;;;;;;5011134;28;20029;-54
2021/12/23 15:28:29;;;;;;;6.57;3.00;;;;;;;;;;5008609;28;20430;-53
2021/12/23 15:30:56;;;;;;;6.47;2.95;;;;;;;;;;5010667;28;20034;-55
2021/12/23 15:33:22;;;;;;;5.65;3.78;;;;;;;;;;5010021;28;20037;-56
2021/12/23 15:35:48;;;;;;;7.80;3.13;;;;;;;;;;5011051;28;20018;-54
2021/12/23 15:38:16;;;;;;;7.03;3.95;;;;;;;;;;5011479;28;20033;-53
2021/12/23 15:40:42;;;;;;;7.10;2.88;;;;;;;;;;5011075;28;20533;-55
2021/12/23 15:43:09;;;;;;;6.80;3.45;;;;;;;;;;5011357;28;20026;-55
2021/12/23 15:45:37;;;;;;;7.05;3.70;;;;;;;;;;5011358;28;20030;-55
2021/12/23 15:48:04;;;;;;;6.18;3.50;;;;;;;;;;5013280;28;20147;-56
2021/12/23 15:50:31;;;;;;;8.13;4.05;;;;;;;;;;5015330;28;20081;-53
2021/12/23 15:52:58;;;;;;;7.05;3.88;;;;;;;;;;5014255;28;20022;-50
2021/12/23 15:55:25;;;;;;;9.50;4.10;;;;;;;;;;4989996;28;20026;-58
2021/12/23 15:57:52;;;;;;;5.07;3.40;;;;;;;;;;5000158;28;20084;-59
2021/12/23 16:00:18;;;;;;;6.00;3.25;;;;;;;;;;5016108;28;20017;-58
2021/12/23 16:02:45;;;;;;;4.72;2.33;;;;;;;;;;5015106;28;20446;-59
2021/12/23 16:07:38;;;;;;;5.00;2.75;;;;;;;;;;5016141;28;20124;-57
2021/12/23 16:10:06;;;;;;;5.93;2.60;;;;;;;;;;5015320;28;20097;-58
2021/12/23 16:12:34;;;;;;;4.28;2.40;;;;;;;;;;5014867;28;20018;-53
2021/12/23 16:15:00;;;;;;;4.80;2.33;;;;;;;;;;5013761;28;20581;-49